Main page
METAR-TAF:

METAR-TAF

Airports :

Donegal Airport

Donegal, Ireland

latitude: 55-02-39N, longitude: 8-20-28W, elevation: 9 m

Current weather observation

The report was made 39 minutes ago, at 17:30 UTC
Wind 20 kt from the South
Temperature 9°C
Humidity 87%
Pressure 1001 hPa
Visibility 10 km or more
Few clouds at a height of 3000 ft
Overcast at a height of 3400 ft
light rain

METAR: EIDL 191730Z 18020KT 9999 -RA FEW030 OVC034 09/07 Q1001

Time: 18:09 (18:09 UTC)

Forecast

The report was made 1 hour and 9 minutes ago, at 17:00 UTC
Forecast valid from 19 at 18 UTC to 19 at 21 UTC
Wind 22 kt from the South/Southeast with gusts up to 34 kt
Visibility 10 km or more
Broken clouds at a height of 2000 ft
light rain
Temporary
from 19 at 18 UTC to 19 at 21 UTC
Visibility: 4000 m
Broken clouds at a height of 1200 ft
rain
Becoming
from 19 at 19 UTC to 19 at 21 UTC
Wind 20 kt from the South with gusts up to 30 kt

TAF: EIDL 191700Z 1918/1921 16022G34KT 9999 -RA BKN020 TEMPO 1918/1921 4000 RA BKN012 BECMG 1919/1921 19020G30KT

Weather observations and forecasts of more than 4000 airports (METAR and TAF reports).

The available stations are represented by yellow and red dots on the map.

Hover mouse over dot to see the name of the station.

Then click to see weather observations and forecasts.

To change the map : click on the green buttons with a black cross to zoom in, on the green button with a dash to zoom out, or on the green arrows for adjacent maps.


METAR-TAF: